KNSE/NSE METAR and TAF weather

Enter ICAO airport designator
Station Type Date Time Source
KNSE METAR 2019/08/26 07:56 UTC NOAA

KNSE 260756Z AUTO 09005KT 10SM CLR 23/23 A2992 RMK AO2 SLP115 T02330233 PNO $


Station Type Date Time Source
KNSE Decoded METAR 2019/08/26 07:56 UTC NOAA

Station name not available
Aug 26, 2019 - 03:56 AM EDT / 2019.08.26 0756 UTC
Wind: from the E (090 degrees) at 6 MPH (5 KT):0
Visibility: 10 mile(s):0
Sky conditions: clear
Temperature: 73.9 F (23.3 C)
Dew Point: 73.9 F (23.3 C)
Relative Humidity: 100%
Pressure (altimeter): 29.92 in. Hg (1013 hPa)
ob: KNSE 260756Z AUTO 09005KT 10SM CLR 23/23 A2992 RMK AO2 SLP115 T02330233 PNO
cycle: 8

Station Type Date Time Source
KNSE TAF 2019/08/26 07:15 UTC NOAA

TAF KNSE 2607/2707 VRB05KT 9999 VCTS SCT020CB QNH2983INS
TEMPO 2609/2615 17010KT 8000 -SHRA VCTS BKN020CB BKN090 OVC120
FM261500 16010KT 9000 BR VCTS SCT020CB BKN050 OVC100 QNH2986INS
TEMPO 2615/2620 19010KT 4800 TSRA SCT020CB BKN030 OVC100
BECMG 2700/2702 VRB05KT 9000 BR VCSH FEW020 SCT030 BKN050 QNH2990INS AUTOMATED SENSOR METWATCH 2607 TIL 2611 T23/2611Z T28/2621Z FN00194

Example: see airport list